createdAt,value
2023-01-18T00:01:46.254Z,98002.39
2023-01-18T00:04:18.923Z,98002.90
2023-01-18T00:06:51.504Z,98001.56
2023-01-18T00:09:23.927Z,97994.95
2023-01-18T00:11:56.273Z,97992.57
2023-01-18T00:14:28.565Z,97987.11
2023-01-18T00:17:01.043Z,97986.20
2023-01-18T00:19:34.078Z,97987.17
2023-01-18T00:22:06.452Z,97990.80
2023-01-18T00:24:38.773Z,97989.55
2023-01-18T00:27:12.835Z,97994.38
2023-01-18T00:29:45.440Z,97995.95
2023-01-18T00:32:17.812Z,97998.47
2023-01-18T00:34:50.703Z,98007.05
2023-01-18T00:37:25.145Z,98012.80
2023-01-18T00:39:57.477Z,98014.23
2023-01-18T00:42:47.667Z,98015.96
2023-01-18T00:45:20.237Z,98021.48
2023-01-18T00:47:52.711Z,98025.45
2023-01-18T00:50:25.427Z,98029.49
2023-01-18T00:53:00.471Z,98019.89
2023-01-18T00:55:33.225Z,98005.72
2023-01-18T00:58:05.591Z,97998.48
2023-01-18T01:00:38.821Z,97997.19
2023-01-18T01:03:13.197Z,97997.59
2023-01-18T01:06:03.489Z,97999.79
2023-01-18T01:08:35.918Z,98004.52
2023-01-18T01:11:10.950Z,98008.27
2023-01-18T01:14:01.266Z,98007.02
2023-01-18T01:16:51.808Z,97998.70
2023-01-18T01:19:41.854Z,97992.68
2023-01-18T01:22:32.174Z,97987.96
2023-01-18T01:25:22.109Z,97990.63
2023-01-18T01:27:54.673Z,97988.06
2023-01-18T01:30:27.047Z,97986.89
2023-01-18T01:32:59.555Z,97983.33
2023-01-18T01:35:32.012Z,97984.44
2023-01-18T01:38:04.483Z,97980.73
2023-01-18T01:40:36.885Z,97980.90
2023-01-18T01:43:14.630Z,97975.54
2023-01-18T01:45:47.074Z,97977.98
2023-01-18T01:48:19.532Z,97975.40
2023-01-18T01:50:52.135Z,97979.84
2023-01-18T01:53:25.682Z,97978.95
2023-01-18T01:55:58.061Z,97982.35
2023-01-18T01:58:32.920Z,97983.05
2023-01-18T02:01:05.378Z,97985.38
2023-01-18T02:03:42.712Z,97978.77
2023-01-18T02:06:31.689Z,97979.60
2023-01-18T02:09:06.548Z,97988.21
2023-01-18T02:11:39.281Z,97983.42
2023-01-18T02:14:15.880Z,97979.23
2023-01-18T02:17:05.913Z,97971.21
2023-01-18T02:20:00.739Z,97964.23
2023-01-18T02:23:00.336Z,97958.48
2023-01-18T02:26:17.423Z,97958.23
2023-01-18T02:28:57.807Z,97957.09
2023-01-18T02:31:35.660Z,97958.16
2023-01-18T02:34:16.637Z,97956.35
2023-01-18T02:36:58.336Z,97951.83
2023-01-18T02:39:39.516Z,97952.41
2023-01-18T02:42:37.022Z,97952.25
2023-01-18T02:45:34.982Z,97948.93
2023-01-18T02:48:09.778Z,97948.11
2023-01-18T02:50:42.513Z,97945.55
2023-01-18T02:53:16.924Z,97947.48
2023-01-18T02:55:55.823Z,97952.14
2023-01-18T02:58:32.938Z,97956.66
2023-01-18T03:01:10.703Z,97955.23
2023-01-18T03:03:47.688Z,97950.24
2023-01-18T03:06:22.574Z,97948.73
2023-01-18T03:08:56.772Z,97950.17
2023-01-18T03:11:39.630Z,97950.60
2023-01-18T03:14:24.069Z,97955.73
2023-01-18T03:17:01.888Z,97957.30
2023-01-18T03:19:59.577Z,97959.20
2023-01-18T03:22:54.654Z,97954.48
2023-01-18T03:25:29.872Z,97955.23
2023-01-18T03:28:21.912Z,97955.09
2023-01-18T03:31:14.513Z,97953.56
2023-01-18T03:33:53.017Z,97941.42
2023-01-18T03:36:29.746Z,97937.98
2023-01-18T03:39:06.040Z,97938.77
2023-01-18T03:41:41.190Z,97939.90
2023-01-18T03:44:13.916Z,97944.10
2023-01-18T03:46:46.639Z,97944.05
2023-01-18T03:49:19.727Z,97943.95
2023-01-18T03:52:02.850Z,97948.41
2023-01-18T03:54:41.144Z,97950.15
2023-01-18T03:57:20.860Z,97950.76
2023-01-18T03:59:53.744Z,97953.65
2023-01-18T04:02:27.936Z,97950.96
2023-01-18T04:05:03.727Z,97944.63
2023-01-18T04:07:36.220Z,97944.59
2023-01-18T04:10:10.009Z,97941.70
2023-01-18T04:12:42.675Z,97937.48
2023-01-18T04:15:15.521Z,97940.63
2023-01-18T04:17:49.857Z,97935.70
2023-01-18T04:20:22.457Z,97935.66
2023-01-18T04:22:56.350Z,97937.27
2023-01-18T04:25:29.022Z,97937.11
2023-01-18T04:28:01.532Z,97942.80
2023-01-18T04:30:33.843Z,97947.45
2023-01-18T04:33:06.311Z,97947.04
2023-01-18T04:35:38.667Z,97948.09
2023-01-18T04:38:11.028Z,97946.00
2023-01-18T04:40:43.549Z,97943.69
2023-01-18T04:43:16.019Z,97940.00
2023-01-18T04:45:55.903Z,97939.13
2023-01-18T04:48:29.035Z,97938.57
2023-01-18T04:51:01.405Z,97939.69
2023-01-18T04:53:35.874Z,97928.91
2023-01-18T04:56:08.918Z,97922.59
2023-01-18T04:58:41.390Z,97917.33
2023-01-18T05:01:14.637Z,97915.17
2023-01-18T05:03:47.294Z,97915.56
2023-01-18T05:06:21.160Z,97911.30
2023-01-18T05:08:53.776Z,97908.09
2023-01-18T05:11:26.125Z,97909.55
2023-01-18T05:13:58.470Z,97906.59
2023-01-18T05:16:31.107Z,97908.09
2023-01-18T05:19:03.626Z,97907.14
2023-01-18T05:21:35.955Z,97910.18
2023-01-18T05:24:08.970Z,97910.09
2023-01-18T05:26:41.334Z,97908.13
2023-01-18T05:29:13.685Z,97911.42
2023-01-18T05:31:46.294Z,97912.35
2023-01-18T05:34:18.892Z,97911.45
2023-01-18T05:36:51.341Z,97904.17
2023-01-18T05:39:23.736Z,97897.23
2023-01-18T05:41:56.898Z,97894.04
2023-01-18T05:44:30.585Z,97891.44
2023-01-18T05:47:02.980Z,97892.08
2023-01-18T05:49:35.350Z,97892.35
2023-01-18T05:52:08.468Z,97884.10
2023-01-18T05:54:40.715Z,97883.95
2023-01-18T05:57:13.092Z,97886.40
2023-01-18T05:59:45.493Z,97882.48
2023-01-18T06:02:18.467Z,97870.95
2023-01-18T06:04:50.937Z,97866.03
2023-01-18T06:07:23.297Z,97859.39
2023-01-18T06:09:55.654Z,97856.61
2023-01-18T06:12:28.096Z,97853.40
2023-01-18T06:15:00.685Z,97855.49
2023-01-18T06:17:34.376Z,97848.80
2023-01-18T06:20:08.337Z,97851.58
2023-01-18T06:22:40.941Z,97848.52
2023-01-18T06:25:13.650Z,97840.61
2023-01-18T06:27:45.948Z,97840.73
2023-01-18T06:30:21.745Z,97836.09
2023-01-18T06:32:54.502Z,97830.62
2023-01-18T06:35:27.054Z,97828.44
2023-01-18T06:37:59.402Z,97822.11
2023-01-18T06:40:32.174Z,97817.99
2023-01-18T06:43:04.562Z,97816.52
2023-01-18T06:45:37.690Z,97815.96
2023-01-18T06:48:10.381Z,97822.14
2023-01-18T06:50:42.754Z,97827.25
2023-01-18T06:53:15.207Z,97829.33
2023-01-18T06:55:57.011Z,97829.09
2023-01-18T06:58:31.186Z,97833.67
2023-01-18T07:01:04.405Z,97849.73
2023-01-18T07:03:37.177Z,97864.55
2023-01-18T07:06:09.718Z,97873.21
2023-01-18T07:08:42.239Z,97868.57
2023-01-18T07:11:15.707Z,97876.14
2023-01-18T07:13:49.616Z,97886.42
2023-01-18T07:16:22.212Z,97883.65
2023-01-18T07:18:54.575Z,97880.98
2023-01-18T07:21:29.887Z,97878.40
2023-01-18T07:24:02.659Z,97874.17
2023-01-18T07:26:35.205Z,97869.45
2023-01-18T07:29:09.288Z,97860.90
2023-01-18T07:31:41.717Z,97857.50
2023-01-18T07:34:14.544Z,97860.50
2023-01-18T07:36:47.024Z,97862.15
2023-01-18T07:39:19.369Z,97866.00
2023-01-18T07:41:51.743Z,97867.84
2023-01-18T07:44:24.092Z,97869.23
2023-01-18T07:46:56.415Z,97878.00
2023-01-18T07:49:28.840Z,97884.59
2023-01-18T07:52:01.237Z,97887.05
2023-01-18T07:54:33.566Z,97893.71
2023-01-18T07:57:06.163Z,97894.08
2023-01-18T07:59:40.107Z,97896.42
2023-01-18T08:02:14.643Z,97892.21
2023-01-18T08:04:51.229Z,97896.66
2023-01-18T08:07:23.824Z,97900.69
2023-01-18T08:09:57.959Z,97905.57
2023-01-18T08:12:30.509Z,97897.94
2023-01-18T08:15:02.857Z,97890.36
2023-01-18T08:17:35.334Z,97896.29
2023-01-18T08:20:10.650Z,97898.31
2023-01-18T08:22:43.050Z,97892.50
2023-01-18T08:25:17.471Z,97901.16
2023-01-18T08:27:49.895Z,97911.35
2023-01-18T08:30:23.724Z,97907.12
2023-01-18T08:32:57.796Z,97905.84
2023-01-18T08:35:31.963Z,97904.34
2023-01-18T08:38:04.659Z,97906.64
2023-01-18T08:40:37.267Z,97904.59
2023-01-18T08:43:10.988Z,97903.55
2023-01-18T08:45:43.494Z,97901.33
2023-01-18T08:48:15.766Z,97897.92
2023-01-18T08:50:50.141Z,97903.96
2023-01-18T08:53:23.821Z,97907.27
2023-01-18T08:55:56.263Z,97906.13
2023-01-18T08:58:28.681Z,97899.52
2023-01-18T09:01:01.119Z,97898.46
2023-01-18T09:03:33.535Z,97899.46
2023-01-18T09:06:12.499Z,97894.16
2023-01-18T09:08:47.626Z,97889.63
2023-01-18T09:11:20.671Z,97890.64
2023-01-18T09:14:02.636Z,97881.08
2023-01-18T09:16:35.194Z,97871.48
2023-01-18T09:19:07.503Z,97870.33
2023-01-18T09:21:40.388Z,97868.11
2023-01-18T09:24:13.133Z,97859.40
2023-01-18T09:26:46.506Z,97856.41
2023-01-18T09:29:19.389Z,97854.86
2023-01-18T09:31:54.060Z,97851.55
2023-01-18T09:34:26.920Z,97844.81
2023-01-18T09:36:59.322Z,97841.55
2023-01-18T09:39:40.193Z,97836.02
2023-01-18T09:42:23.470Z,97835.09
2023-01-18T09:44:59.940Z,97824.45
2023-01-18T09:47:36.866Z,97814.05
2023-01-18T09:50:17.176Z,97803.86
2023-01-18T09:52:58.376Z,97793.02
2023-01-18T09:55:43.173Z,97785.27
2023-01-18T09:58:33.109Z,97777.81
2023-01-18T10:01:09.531Z,97772.23
2023-01-18T10:03:53.368Z,97766.44
2023-01-18T10:06:29.787Z,97767.59
2023-01-18T10:09:06.407Z,97771.71
2023-01-18T10:11:48.197Z,97770.30
2023-01-18T10:14:42.956Z,97773.11
2023-01-18T10:17:19.039Z,97766.89
2023-01-18T10:19:51.973Z,97763.76
2023-01-18T10:22:30.616Z,97752.57
2023-01-18T10:25:07.625Z,97743.31
2023-01-18T10:28:14.506Z,97742.51
2023-01-18T10:31:01.830Z,97741.48
2023-01-18T10:33:41.061Z,97745.97
2023-01-18T10:36:18.306Z,97743.55
2023-01-18T10:38:53.028Z,97741.70
2023-01-18T10:41:29.677Z,97741.56
2023-01-18T10:44:02.971Z,97741.20
2023-01-18T10:46:35.345Z,97744.90
2023-01-18T10:49:09.355Z,97746.59
2023-01-18T10:51:41.793Z,97747.41
2023-01-18T10:54:27.953Z,97754.26
2023-01-18T10:57:09.171Z,97763.81
2023-01-18T10:59:43.022Z,97764.17
2023-01-18T11:02:23.661Z,97767.60
2023-01-18T11:05:03.917Z,97769.61
2023-01-18T11:07:36.799Z,97774.16
2023-01-18T11:10:27.145Z,97771.98
2023-01-18T11:12:59.846Z,97772.16
2023-01-18T11:15:33.155Z,97769.36
2023-01-18T11:18:10.366Z,97764.48
2023-01-18T11:20:48.197Z,97759.20
2023-01-18T11:23:25.575Z,97754.61
2023-01-18T11:26:04.396Z,97749.48
2023-01-18T11:28:45.792Z,97750.59
2023-01-18T11:31:22.253Z,97743.45
2023-01-18T11:33:56.982Z,97740.73
2023-01-18T11:36:41.669Z,97738.20
2023-01-18T11:39:32.146Z,97732.20
2023-01-18T11:42:26.507Z,97733.30
2023-01-18T11:45:20.228Z,97728.34
2023-01-18T11:48:03.695Z,97718.23
2023-01-18T11:50:43.531Z,97710.85
2023-01-18T11:53:24.250Z,97708.50
2023-01-18T11:56:06.147Z,97710.36
2023-01-18T11:58:39.205Z,97711.63
2023-01-18T12:01:27.911Z,97709.58
2023-01-18T12:04:05.386Z,97712.06
2023-01-18T12:06:49.302Z,97705.51
2023-01-18T12:09:44.362Z,97699.87
2023-01-18T12:12:38.060Z,97695.86
2023-01-18T12:15:28.478Z,97690.31
2023-01-18T12:18:19.498Z,97687.60
2023-01-18T12:21:01.161Z,97685.19
2023-01-18T12:23:50.695Z,97686.49
2023-01-18T12:26:43.046Z,97681.66
2023-01-18T12:29:52.744Z,97683.59
2023-01-18T12:32:42.806Z,97676.73
2023-01-18T12:35:29.054Z,97669.11
2023-01-18T12:38:13.720Z,97666.38
2023-01-18T12:40:57.897Z,97670.51
2023-01-18T12:43:43.936Z,97674.94
2023-01-18T12:46:21.157Z,97677.04
2023-01-18T12:48:57.849Z,97686.42
2023-01-18T12:51:35.378Z,97691.16
2023-01-18T12:54:14.523Z,97697.69
2023-01-18T12:56:50.482Z,97703.03
2023-01-18T12:59:25.884Z,97700.93
2023-01-18T13:02:05.422Z,97693.02
2023-01-18T13:04:44.755Z,97693.91
2023-01-18T13:07:21.884Z,97696.84
2023-01-18T13:09:54.743Z,97695.16
2023-01-18T13:12:28.782Z,97696.92
2023-01-18T13:15:08.636Z,97699.06
2023-01-18T13:17:46.994Z,97710.20
2023-01-18T13:20:26.609Z,97710.88
2023-01-18T13:23:10.093Z,97713.33
2023-01-18T13:25:52.092Z,97714.02
2023-01-18T13:28:27.563Z,97725.96
2023-01-18T13:31:04.911Z,97731.61
2023-01-18T13:33:40.872Z,97736.46
2023-01-18T13:36:17.427Z,97740.73
2023-01-18T13:38:55.588Z,97748.77
2023-01-18T13:41:30.452Z,97755.88
2023-01-18T13:44:26.974Z,97760.63
2023-01-18T13:47:02.009Z,97764.83
2023-01-18T13:49:38.607Z,97767.00
2023-01-18T13:52:35.706Z,97776.79
2023-01-18T13:55:31.319Z,97777.59
2023-01-18T13:58:03.972Z,97785.77
2023-01-18T14:00:47.351Z,97789.83
2023-01-18T14:03:26.189Z,97790.69
2023-01-18T14:05:59.867Z,97790.46
2023-01-18T14:08:34.521Z,97796.08
2023-01-18T14:11:09.514Z,97796.81
2023-01-18T14:14:03.802Z,97796.77
2023-01-18T14:16:39.793Z,97796.02
2023-01-18T14:19:18.299Z,97796.27
2023-01-18T14:22:15.153Z,97798.35
2023-01-18T14:25:05.641Z,97795.77
2023-01-18T14:27:43.199Z,97795.06
2023-01-18T14:30:25.907Z,97799.27
2023-01-18T14:33:02.943Z,97800.70
2023-01-18T14:35:35.491Z,97799.23
2023-01-18T14:38:18.577Z,97797.04
2023-01-18T14:40:53.888Z,97800.65
2023-01-18T14:43:30.827Z,97800.36
2023-01-18T14:46:06.776Z,97800.36
2023-01-18T14:48:51.616Z,97799.39
2023-01-18T14:51:26.723Z,97799.91
2023-01-18T14:53:59.247Z,97802.65
2023-01-18T14:56:34.949Z,97805.74
2023-01-18T14:59:22.024Z,97809.39
2023-01-18T15:01:59.590Z,97810.98
2023-01-18T15:04:36.237Z,97815.94
2023-01-18T15:07:11.298Z,97813.52
2023-01-18T15:09:45.819Z,97817.33
2023-01-18T15:12:23.083Z,97822.16
2023-01-18T15:14:55.697Z,97828.85
2023-01-18T15:17:29.131Z,97830.45
2023-01-18T15:20:07.801Z,97833.89
2023-01-18T15:22:42.222Z,97833.09
2023-01-18T15:25:24.483Z,97837.67
2023-01-18T15:27:59.804Z,97841.63
2023-01-18T15:30:34.370Z,97848.14
2023-01-18T15:33:07.127Z,97847.27
2023-01-18T15:35:39.857Z,97852.52
2023-01-18T15:38:13.462Z,97855.61
2023-01-18T15:40:57.511Z,97860.27
2023-01-18T15:43:37.026Z,97860.26
2023-01-18T15:46:14.127Z,97862.02
2023-01-18T15:48:51.672Z,97866.14
2023-01-18T15:51:44.770Z,97865.01
2023-01-18T15:54:22.459Z,97869.29
2023-01-18T15:56:57.186Z,97872.27
2023-01-18T15:59:30.409Z,97873.56
2023-01-18T16:02:20.220Z,97877.48
2023-01-18T16:05:11.271Z,97880.42
2023-01-18T16:07:43.668Z,97879.91
2023-01-18T16:10:30.444Z,97879.45
2023-01-18T16:13:30.710Z,97880.31
2023-01-18T16:16:23.110Z,97885.20
2023-01-18T16:19:07.179Z,97886.69
2023-01-18T16:21:48.734Z,97888.60
2023-01-18T16:24:30.530Z,97892.63
2023-01-18T16:27:11.271Z,97899.61
2023-01-18T16:29:46.631Z,97902.07
2023-01-18T16:32:29.262Z,97909.70
2023-01-18T16:35:11.184Z,97906.77
2023-01-18T16:37:45.324Z,97911.88
2023-01-18T16:40:21.226Z,97912.58
2023-01-18T16:43:02.084Z,97914.63
2023-01-18T16:45:37.672Z,97917.67
2023-01-18T16:48:18.081Z,97920.64
2023-01-18T16:50:51.680Z,97926.31
2023-01-18T16:53:24.443Z,97932.09
2023-01-18T16:55:57.451Z,97932.54
2023-01-18T16:58:29.908Z,97940.59
2023-01-18T17:01:06.967Z,97939.55
2023-01-18T17:03:40.426Z,97947.37
2023-01-18T17:06:17.905Z,97946.86
2023-01-18T17:08:50.844Z,97955.54
2023-01-18T17:11:23.339Z,97961.30
2023-01-18T17:13:55.787Z,97970.18
2023-01-18T17:16:28.158Z,97973.52
2023-01-18T17:19:00.614Z,97975.58
2023-01-18T17:21:33.085Z,97982.73
2023-01-18T17:24:06.363Z,97985.41
2023-01-18T17:26:39.367Z,97992.84
2023-01-18T17:29:17.994Z,97999.39
2023-01-18T17:31:52.990Z,98009.52
2023-01-18T17:34:29.252Z,98013.17
2023-01-18T17:37:03.307Z,98016.42
2023-01-18T17:39:44.109Z,98021.31
2023-01-18T17:42:30.168Z,98025.52
2023-01-18T17:45:06.793Z,98032.77
2023-01-18T17:47:40.106Z,98038.33
2023-01-18T17:50:21.727Z,98042.71
2023-01-18T17:52:55.401Z,98046.65
2023-01-18T17:55:34.630Z,98048.02
2023-01-18T17:58:07.600Z,98057.16
2023-01-18T18:00:40.070Z,98064.30
2023-01-18T18:03:13.411Z,98068.27
2023-01-18T18:05:46.080Z,98070.76
2023-01-18T18:08:19.080Z,98077.25
2023-01-18T18:10:52.102Z,98085.00
2023-01-18T18:13:25.114Z,98089.44
2023-01-18T18:15:57.930Z,98088.11
2023-01-18T18:18:30.588Z,98095.06
2023-01-18T18:21:05.523Z,98098.52
2023-01-18T18:23:38.442Z,98111.12
2023-01-18T18:26:10.892Z,98118.48
2023-01-18T18:28:43.547Z,98128.59
2023-01-18T18:31:17.555Z,98136.77
2023-01-18T18:33:54.925Z,98146.80
2023-01-18T18:36:28.175Z,98160.44
2023-01-18T18:39:03.413Z,98163.44
2023-01-18T18:41:36.116Z,98167.75
2023-01-18T18:44:08.384Z,98172.23
2023-01-18T18:46:41.314Z,98177.08
2023-01-18T18:49:13.823Z,98179.85
2023-01-18T18:51:46.236Z,98182.52
2023-01-18T18:54:18.796Z,98186.70
2023-01-18T18:56:51.425Z,98189.73
2023-01-18T18:59:23.979Z,98196.17
2023-01-18T19:01:57.878Z,98199.92
2023-01-18T19:04:30.593Z,98203.67
2023-01-18T19:07:03.272Z,98205.36
2023-01-18T19:09:36.008Z,98204.27
2023-01-18T19:12:08.854Z,98207.82
2023-01-18T19:14:41.136Z,98206.61
2023-01-18T19:17:18.570Z,98212.95
2023-01-18T19:19:54.385Z,98221.56
2023-01-18T19:22:26.855Z,98224.49
2023-01-18T19:24:59.846Z,98233.21
2023-01-18T19:27:32.191Z,98239.46
2023-01-18T19:30:10.718Z,98251.90
2023-01-18T19:32:43.236Z,98256.76
2023-01-18T19:35:15.660Z,98260.28
2023-01-18T19:37:48.607Z,98262.95
2023-01-18T19:40:22.046Z,98266.02
2023-01-18T19:42:56.164Z,98270.52
2023-01-18T19:45:29.557Z,98278.55
2023-01-18T19:48:03.001Z,98283.67
2023-01-18T19:50:35.530Z,98286.07
2023-01-18T19:53:07.995Z,98289.41
2023-01-18T19:55:41.759Z,98291.10
2023-01-18T19:58:14.490Z,98300.32
2023-01-18T20:00:46.999Z,98305.58
2023-01-18T20:03:19.731Z,98314.39
2023-01-18T20:05:52.223Z,98313.89
2023-01-18T20:08:24.699Z,98317.77
2023-01-18T20:10:57.121Z,98326.66
2023-01-18T20:13:30.111Z,98331.98
2023-01-18T20:16:02.596Z,98340.74
2023-01-18T20:18:36.370Z,98348.40
2023-01-18T20:21:10.441Z,98353.82
2023-01-18T20:23:44.092Z,98368.98
2023-01-18T20:26:31.057Z,98377.08
2023-01-18T20:29:08.106Z,98382.50
2023-01-18T20:31:44.613Z,98384.45
2023-01-18T20:34:21.129Z,98383.16
2023-01-18T20:36:53.597Z,98388.31
2023-01-18T20:39:26.157Z,98390.76
2023-01-18T20:41:58.833Z,98393.52
2023-01-18T20:44:31.254Z,98401.77
2023-01-18T20:47:03.959Z,98410.66
2023-01-18T20:49:38.793Z,98415.92
2023-01-18T20:52:11.737Z,98420.22
2023-01-18T20:54:44.072Z,98425.55
2023-01-18T20:57:17.853Z,98431.67
2023-01-18T20:59:50.260Z,98436.01
2023-01-18T21:02:22.883Z,98438.76
2023-01-18T21:04:55.433Z,98440.11
2023-01-18T21:07:29.780Z,98445.94
2023-01-18T21:10:02.278Z,98450.60
2023-01-18T21:12:34.606Z,98461.72
2023-01-18T21:15:09.165Z,98472.13
2023-01-18T21:17:41.551Z,98476.65
2023-01-18T21:20:15.989Z,98475.67
2023-01-18T21:22:48.297Z,98474.65
2023-01-18T21:25:20.793Z,98472.73
2023-01-18T21:27:53.577Z,98474.80
2023-01-18T21:30:29.953Z,98482.19
2023-01-18T21:33:04.692Z,98488.27
2023-01-18T21:35:37.144Z,98496.69
2023-01-18T21:38:09.766Z,98499.52
2023-01-18T21:40:42.352Z,98505.65
2023-01-18T21:43:38.057Z,98510.73
2023-01-18T21:46:12.531Z,98524.02
2023-01-18T21:48:44.999Z,98536.75
2023-01-18T21:51:43.588Z,98544.17
2023-01-18T21:54:16.084Z,98543.95
2023-01-18T21:56:49.210Z,98549.84
2023-01-18T21:59:21.623Z,98554.78
2023-01-18T22:01:54.101Z,98563.10
2023-01-18T22:04:44.391Z,98566.01
2023-01-18T22:07:17.682Z,98579.77
2023-01-18T22:10:03.412Z,98591.76
2023-01-18T22:12:39.143Z,98604.66
2023-01-18T22:15:14.032Z,98606.63
2023-01-18T22:17:46.330Z,98606.43
2023-01-18T22:20:19.655Z,98610.88
2023-01-18T22:22:52.070Z,98610.34
2023-01-18T22:25:24.420Z,98620.42
2023-01-18T22:27:56.786Z,98626.55
2023-01-18T22:30:29.372Z,98635.16
2023-01-18T22:33:01.716Z,98638.55
2023-01-18T22:35:34.535Z,98640.20
2023-01-18T22:38:07.238Z,98633.45
2023-01-18T22:40:39.762Z,98626.65
2023-01-18T22:43:12.239Z,98623.95
2023-01-18T22:45:44.686Z,98624.96
2023-01-18T22:48:16.963Z,98629.32
2023-01-18T22:50:55.701Z,98628.68
2023-01-18T22:53:31.457Z,98630.62
2023-01-18T22:56:06.319Z,98625.11
2023-01-18T22:58:39.192Z,98620.98
2023-01-18T23:01:19.442Z,98617.64
2023-01-18T23:03:52.855Z,98620.87
2023-01-18T23:06:26.358Z,98628.83
2023-01-18T23:08:59.053Z,98639.98
2023-01-18T23:11:32.938Z,98648.64
2023-01-18T23:14:23.990Z,98653.66
2023-01-18T23:17:14.196Z,98665.84
2023-01-18T23:19:46.699Z,98672.29
2023-01-18T23:22:19.088Z,98677.36
2023-01-18T23:24:51.590Z,98680.64
2023-01-18T23:27:24.294Z,98685.88
2023-01-18T23:29:58.898Z,98691.34
2023-01-18T23:32:31.736Z,98700.02
2023-01-18T23:35:05.242Z,98700.24
2023-01-18T23:37:37.601Z,98704.96
2023-01-18T23:40:31.325Z,98711.50
2023-01-18T23:43:21.259Z,98723.52
2023-01-18T23:46:11.646Z,98743.33
2023-01-18T23:49:01.450Z,98753.88
2023-01-18T23:51:51.414Z,98753.42
2023-01-18T23:54:23.823Z,98752.35
2023-01-18T23:56:56.168Z,98744.55
2023-01-18T23:59:28.518Z,98743.52
